sensor_id;sensor_type;location;lat;lon;timestamp;P1;durP1;ratioP1;P2;durP2;ratioP2
41683;SDS011;27369;52.030;4.586;2022-12-18T00:01:22;93.55;;;31.92;;
41683;SDS011;27369;52.030;4.586;2022-12-18T00:03:47;83.25;;;24.35;;
41683;SDS011;27369;52.030;4.586;2022-12-18T00:06:13;83.53;;;26.40;;
41683;SDS011;27369;52.030;4.586;2022-12-18T00:08:43;70.53;;;25.45;;
41683;SDS011;27369;52.030;4.586;2022-12-18T00:11:11;59.67;;;20.48;;
41683;SDS011;27369;52.030;4.586;2022-12-18T00:13:38;85.05;;;26.52;;
41683;SDS011;27369;52.030;4.586;2022-12-18T00:16:04;97.97;;;31.00;;
41683;SDS011;27369;52.030;4.586;2022-12-18T00:18:32;79.47;;;28.65;;
41683;SDS011;27369;52.030;4.586;2022-12-18T00:21:01;47.70;;;16.27;;
41683;SDS011;27369;52.030;4.586;2022-12-18T00:23:28;78.90;;;26.08;;
41683;SDS011;27369;52.030;4.586;2022-12-18T00:25:55;83.65;;;26.45;;
41683;SDS011;27369;52.030;4.586;2022-12-18T00:28:24;87.93;;;28.27;;
41683;SDS011;27369;52.030;4.586;2022-12-18T00:30:49;79.18;;;28.17;;
41683;SDS011;27369;52.030;4.586;2022-12-18T00:35:42;74.77;;;26.43;;
41683;SDS011;27369;52.030;4.586;2022-12-18T00:38:07;65.50;;;21.90;;
41683;SDS011;27369;52.030;4.586;2022-12-18T00:40:32;84.20;;;26.98;;
41683;SDS011;27369;52.030;4.586;2022-12-18T00:42:58;91.20;;;30.10;;
41683;SDS011;27369;52.030;4.586;2022-12-18T00:45:27;102.60;;;31.02;;
41683;SDS011;27369;52.030;4.586;2022-12-18T00:47:55;60.25;;;19.80;;
41683;SDS011;27369;52.030;4.586;2022-12-18T00:50:21;68.25;;;20.58;;
41683;SDS011;27369;52.030;4.586;2022-12-18T00:52:47;64.05;;;22.13;;
41683;SDS011;27369;52.030;4.586;2022-12-18T00:55:13;75.55;;;26.67;;
41683;SDS011;27369;52.030;4.586;2022-12-18T00:57:38;60.63;;;21.98;;
41683;SDS011;27369;52.030;4.586;2022-12-18T01:00:04;68.72;;;23.52;;
41683;SDS011;27369;52.030;4.586;2022-12-18T01:02:31;77.20;;;27.10;;
41683;SDS011;27369;52.030;4.586;2022-12-18T01:04:56;75.03;;;26.95;;
41683;SDS011;27369;52.030;4.586;2022-12-18T01:07:22;91.80;;;30.52;;
41683;SDS011;27369;52.030;4.586;2022-12-18T01:09:47;68.97;;;22.15;;
41683;SDS011;27369;52.030;4.586;2022-12-18T01:12:13;66.55;;;24.02;;
41683;SDS011;27369;52.030;4.586;2022-12-18T01:14:38;72.43;;;25.77;;
41683;SDS011;27369;52.030;4.586;2022-12-18T01:17:03;67.60;;;21.63;;
41683;SDS011;27369;52.030;4.586;2022-12-18T01:19:29;57.22;;;23.20;;
41683;SDS011;27369;52.030;4.586;2022-12-18T01:21:55;48.33;;;17.15;;
41683;SDS011;27369;52.030;4.586;2022-12-18T01:24:20;72.38;;;25.13;;
41683;SDS011;27369;52.030;4.586;2022-12-18T01:26:46;65.20;;;19.98;;
41683;SDS011;27369;52.030;4.586;2022-12-18T01:29:11;71.25;;;24.75;;
41683;SDS011;27369;52.030;4.586;2022-12-18T01:31:37;72.82;;;25.55;;
41683;SDS011;27369;52.030;4.586;2022-12-18T01:34:03;92.03;;;27.52;;
41683;SDS011;27369;52.030;4.586;2022-12-18T01:36:30;75.55;;;27.67;;
41683;SDS011;27369;52.030;4.586;2022-12-18T01:38:59;61.10;;;22.70;;
41683;SDS011;27369;52.030;4.586;2022-12-18T01:41:27;67.68;;;25.10;;
41683;SDS011;27369;52.030;4.586;2022-12-18T01:47:22;95.82;;;23.55;;
41683;SDS011;27369;52.030;4.586;2022-12-18T01:49:51;79.22;;;26.30;;
41683;SDS011;27369;52.030;4.586;2022-12-18T01:52:17;83.45;;;26.08;;
41683;SDS011;27369;52.030;4.586;2022-12-18T01:54:45;77.57;;;26.40;;
41683;SDS011;27369;52.030;4.586;2022-12-18T01:57:12;62.00;;;19.20;;
41683;SDS011;27369;52.030;4.586;2022-12-18T01:59:38;59.95;;;20.67;;
41683;SDS011;27369;52.030;4.586;2022-12-18T02:02:07;78.10;;;26.02;;
41683;SDS011;27369;52.030;4.586;2022-12-18T02:04:33;59.20;;;20.98;;
41683;SDS011;27369;52.030;4.586;2022-12-18T02:10:15;65.57;;;21.45;;
41683;SDS011;27369;52.030;4.586;2022-12-18T02:18:02;54.75;;;21.05;;
41683;SDS011;27369;52.030;4.586;2022-12-18T02:20:44;69.03;;;25.80;;
41683;SDS011;27369;52.030;4.586;2022-12-18T02:28:41;64.78;;;22.40;;
41683;SDS011;27369;52.030;4.586;2022-12-18T02:31:11;75.35;;;26.75;;
41683;SDS011;27369;52.030;4.586;2022-12-18T02:33:43;77.20;;;28.85;;
41683;SDS011;27369;52.030;4.586;2022-12-18T02:36:09;76.25;;;26.60;;
41683;SDS011;27369;52.030;4.586;2022-12-18T02:38:37;69.35;;;19.42;;
41683;SDS011;27369;52.030;4.586;2022-12-18T02:41:04;68.85;;;24.13;;
41683;SDS011;27369;52.030;4.586;2022-12-18T02:43:31;66.43;;;25.08;;
41683;SDS011;27369;52.030;4.586;2022-12-18T02:45:57;60.67;;;21.17;;
41683;SDS011;27369;52.030;4.586;2022-12-18T02:48:26;63.95;;;24.95;;
41683;SDS011;27369;52.030;4.586;2022-12-18T02:53:52;58.40;;;23.10;;
41683;SDS011;27369;52.030;4.586;2022-12-18T02:56:27;71.50;;;26.08;;
41683;SDS011;27369;52.030;4.586;2022-12-18T03:01:36;38.67;;;16.95;;
41683;SDS011;27369;52.030;4.586;2022-12-18T03:04:10;75.60;;;26.90;;
41683;SDS011;27369;52.030;4.586;2022-12-18T03:06:58;62.83;;;19.45;;
41683;SDS011;27369;52.030;4.586;2022-12-18T03:09:31;55.67;;;22.10;;
41683;SDS011;27369;52.030;4.586;2022-12-18T03:17:30;41.42;;;17.35;;
41683;SDS011;27369;52.030;4.586;2022-12-18T03:20:00;68.78;;;22.85;;
41683;SDS011;27369;52.030;4.586;2022-12-18T03:22:33;79.85;;;26.33;;
41683;SDS011;27369;52.030;4.586;2022-12-18T03:25:03;80.50;;;24.92;;
41683;SDS011;27369;52.030;4.586;2022-12-18T03:27:31;59.88;;;19.17;;
41683;SDS011;27369;52.030;4.586;2022-12-18T03:32:44;68.53;;;26.38;;
41683;SDS011;27369;52.030;4.586;2022-12-18T03:35:16;67.72;;;24.10;;
41683;SDS011;27369;52.030;4.586;2022-12-18T03:37:46;75.22;;;24.75;;
41683;SDS011;27369;52.030;4.586;2022-12-18T03:40:12;68.47;;;24.27;;
41683;SDS011;27369;52.030;4.586;2022-12-18T03:45:10;66.10;;;24.63;;
41683;SDS011;27369;52.030;4.586;2022-12-18T03:47:53;63.70;;;22.65;;
41683;SDS011;27369;52.030;4.586;2022-12-18T03:52:59;60.88;;;21.95;;
41683;SDS011;27369;52.030;4.586;2022-12-18T03:55:30;62.80;;;22.13;;
41683;SDS011;27369;52.030;4.586;2022-12-18T03:57:59;64.45;;;22.98;;
41683;SDS011;27369;52.030;4.586;2022-12-18T04:00:28;61.17;;;24.83;;
41683;SDS011;27369;52.030;4.586;2022-12-18T04:02:56;62.10;;;23.20;;
41683;SDS011;27369;52.030;4.586;2022-12-18T04:05:24;62.92;;;25.73;;
41683;SDS011;27369;52.030;4.586;2022-12-18T04:07:52;58.55;;;24.50;;
41683;SDS011;27369;52.030;4.586;2022-12-18T04:12:44;58.30;;;21.73;;
41683;SDS011;27369;52.030;4.586;2022-12-18T04:15:10;57.47;;;22.80;;
41683;SDS011;27369;52.030;4.586;2022-12-18T04:17:36;55.30;;;23.13;;
41683;SDS011;27369;52.030;4.586;2022-12-18T04:20:02;61.17;;;20.50;;
41683;SDS011;27369;52.030;4.586;2022-12-18T04:22:28;61.97;;;21.92;;
41683;SDS011;27369;52.030;4.586;2022-12-18T04:24:53;57.42;;;22.40;;
41683;SDS011;27369;52.030;4.586;2022-12-18T04:27:19;59.65;;;22.73;;
41683;SDS011;27369;52.030;4.586;2022-12-18T04:29:44;56.83;;;22.17;;
41683;SDS011;27369;52.030;4.586;2022-12-18T04:32:10;58.97;;;23.98;;
41683;SDS011;27369;52.030;4.586;2022-12-18T04:34:35;59.50;;;24.15;;
41683;SDS011;27369;52.030;4.586;2022-12-18T04:37:00;53.17;;;21.75;;
41683;SDS011;27369;52.030;4.586;2022-12-18T04:39:26;58.20;;;22.90;;
41683;SDS011;27369;52.030;4.586;2022-12-18T04:41:51;59.00;;;25.38;;
41683;SDS011;27369;52.030;4.586;2022-12-18T04:44:17;63.15;;;23.63;;
41683;SDS011;27369;52.030;4.586;2022-12-18T04:46:42;62.63;;;25.13;;
41683;SDS011;27369;52.030;4.586;2022-12-18T04:49:08;59.70;;;25.27;;
41683;SDS011;27369;52.030;4.586;2022-12-18T04:51:35;60.80;;;26.45;;
41683;SDS011;27369;52.030;4.586;2022-12-18T04:54:01;50.58;;;19.45;;
41683;SDS011;27369;52.030;4.586;2022-12-18T04:56:27;55.42;;;22.33;;
41683;SDS011;27369;52.030;4.586;2022-12-18T04:58:52;65.68;;;24.23;;
41683;SDS011;27369;52.030;4.586;2022-12-18T05:01:18;62.20;;;24.83;;
41683;SDS011;27369;52.030;4.586;2022-12-18T05:03:43;65.45;;;25.35;;
41683;SDS011;27369;52.030;4.586;2022-12-18T05:06:09;67.63;;;26.25;;
41683;SDS011;27369;52.030;4.586;2022-12-18T05:08:34;63.20;;;23.85;;
41683;SDS011;27369;52.030;4.586;2022-12-18T05:11:04;58.20;;;24.73;;
41683;SDS011;27369;52.030;4.586;2022-12-18T05:13:32;67.05;;;25.63;;
41683;SDS011;27369;52.030;4.586;2022-12-18T05:15:58;72.10;;;24.88;;
41683;SDS011;27369;52.030;4.586;2022-12-18T05:18:24;68.55;;;25.35;;
41683;SDS011;27369;52.030;4.586;2022-12-18T05:20:50;55.90;;;24.38;;
41683;SDS011;27369;52.030;4.586;2022-12-18T05:23:17;55.65;;;24.80;;
41683;SDS011;27369;52.030;4.586;2022-12-18T05:25:46;54.95;;;22.67;;
41683;SDS011;27369;52.030;4.586;2022-12-18T05:28:26;68.47;;;25.15;;
41683;SDS011;27369;52.030;4.586;2022-12-18T05:30:54;57.70;;;23.67;;
41683;SDS011;27369;52.030;4.586;2022-12-18T05:33:22;60.65;;;24.13;;
41683;SDS011;27369;52.030;4.586;2022-12-18T05:35:52;58.63;;;23.95;;
41683;SDS011;27369;52.030;4.586;2022-12-18T05:38:20;63.33;;;25.27;;
41683;SDS011;27369;52.030;4.586;2022-12-18T05:40:49;64.22;;;25.45;;
41683;SDS011;27369;52.030;4.586;2022-12-18T05:43:15;67.00;;;26.08;;
41683;SDS011;27369;52.030;4.586;2022-12-18T05:45:41;65.93;;;25.83;;
41683;SDS011;27369;52.030;4.586;2022-12-18T05:48:07;54.17;;;23.80;;
41683;SDS011;27369;52.030;4.586;2022-12-18T05:50:34;58.28;;;23.42;;
41683;SDS011;27369;52.030;4.586;2022-12-18T05:53:01;61.40;;;24.38;;
41683;SDS011;27369;52.030;4.586;2022-12-18T05:55:27;60.85;;;24.00;;
41683;SDS011;27369;52.030;4.586;2022-12-18T05:57:52;48.58;;;22.13;;
41683;SDS011;27369;52.030;4.586;2022-12-18T06:00:17;58.15;;;24.40;;
41683;SDS011;27369;52.030;4.586;2022-12-18T06:02:46;62.92;;;23.90;;
41683;SDS011;27369;52.030;4.586;2022-12-18T06:05:12;58.92;;;24.00;;
41683;SDS011;27369;52.030;4.586;2022-12-18T06:07:37;60.42;;;26.25;;
41683;SDS011;27369;52.030;4.586;2022-12-18T06:10:03;55.33;;;23.77;;
41683;SDS011;27369;52.030;4.586;2022-12-18T06:12:29;53.38;;;23.63;;
41683;SDS011;27369;52.030;4.586;2022-12-18T06:14:54;52.15;;;22.67;;
41683;SDS011;27369;52.030;4.586;2022-12-18T06:17:19;55.55;;;22.15;;
41683;SDS011;27369;52.030;4.586;2022-12-18T06:19:45;43.08;;;19.90;;
41683;SDS011;27369;52.030;4.586;2022-12-18T06:22:10;54.47;;;22.25;;
41683;SDS011;27369;52.030;4.586;2022-12-18T06:24:36;50.65;;;21.63;;
41683;SDS011;27369;52.030;4.586;2022-12-18T06:27:01;50.25;;;21.42;;
41683;SDS011;27369;52.030;4.586;2022-12-18T06:29:27;49.33;;;20.60;;
41683;SDS011;27369;52.030;4.586;2022-12-18T06:31:52;36.25;;;16.60;;
41683;SDS011;27369;52.030;4.586;2022-12-18T06:34:18;48.55;;;20.02;;
41683;SDS011;27369;52.030;4.586;2022-12-18T06:36:43;44.20;;;19.50;;
41683;SDS011;27369;52.030;4.586;2022-12-18T06:39:08;41.22;;;16.70;;
41683;SDS011;27369;52.030;4.586;2022-12-18T06:41:34;46.15;;;19.63;;
41683;SDS011;27369;52.030;4.586;2022-12-18T06:43:59;37.03;;;16.67;;
41683;SDS011;27369;52.030;4.586;2022-12-18T06:46:25;27.00;;;14.60;;
41683;SDS011;27369;52.030;4.586;2022-12-18T06:48:50;31.50;;;16.02;;
41683;SDS011;27369;52.030;4.586;2022-12-18T06:51:19;37.85;;;16.02;;
41683;SDS011;27369;52.030;4.586;2022-12-18T06:53:46;31.75;;;15.52;;
41683;SDS011;27369;52.030;4.586;2022-12-18T06:56:11;32.00;;;12.52;;
41683;SDS011;27369;52.030;4.586;2022-12-18T06:58:37;36.22;;;17.10;;
41683;SDS011;27369;52.030;4.586;2022-12-18T07:01:04;27.98;;;14.57;;
41683;SDS011;27369;52.030;4.586;2022-12-18T07:03:31;33.22;;;14.70;;
41683;SDS011;27369;52.030;4.586;2022-12-18T07:05:57;28.00;;;13.50;;
41683;SDS011;27369;52.030;4.586;2022-12-18T07:08:22;31.73;;;14.73;;
41683;SDS011;27369;52.030;4.586;2022-12-18T07:10:47;31.10;;;13.57;;
41683;SDS011;27369;52.030;4.586;2022-12-18T07:13:16;31.80;;;14.77;;
41683;SDS011;27369;52.030;4.586;2022-12-18T07:15:42;30.63;;;12.52;;
41683;SDS011;27369;52.030;4.586;2022-12-18T07:20:33;19.93;;;10.20;;
41683;SDS011;27369;52.030;4.586;2022-12-18T07:23:01;35.95;;;14.82;;
41683;SDS011;27369;52.030;4.586;2022-12-18T07:25:28;20.85;;;10.95;;
41683;SDS011;27369;52.030;4.586;2022-12-18T07:27:54;25.58;;;12.18;;
41683;SDS011;27369;52.030;4.586;2022-12-18T07:30:19;34.67;;;15.40;;
41683;SDS011;27369;52.030;4.586;2022-12-18T07:32:45;19.52;;;9.75;;
41683;SDS011;27369;52.030;4.586;2022-12-18T07:35:10;13.52;;;7.22;;
41683;SDS011;27369;52.030;4.586;2022-12-18T07:37:35;35.10;;;15.90;;
41683;SDS011;27369;52.030;4.586;2022-12-18T07:40:01;29.50;;;14.35;;
41683;SDS011;27369;52.030;4.586;2022-12-18T07:42:26;21.33;;;12.65;;
41683;SDS011;27369;52.030;4.586;2022-12-18T07:44:58;25.15;;;14.10;;
41683;SDS011;27369;52.030;4.586;2022-12-18T07:47:25;26.35;;;13.00;;
41683;SDS011;27369;52.030;4.586;2022-12-18T07:49:50;27.20;;;13.00;;
41683;SDS011;27369;52.030;4.586;2022-12-18T07:52:16;21.02;;;10.70;;
41683;SDS011;27369;52.030;4.586;2022-12-18T07:54:41;21.67;;;9.43;;
41683;SDS011;27369;52.030;4.586;2022-12-18T07:57:07;28.60;;;13.75;;
41683;SDS011;27369;52.030;4.586;2022-12-18T07:59:33;24.42;;;8.80;;
41683;SDS011;27369;52.030;4.586;2022-12-18T08:01:59;32.20;;;12.73;;
41683;SDS011;27369;52.030;4.586;2022-12-18T08:04:25;22.65;;;12.43;;
41683;SDS011;27369;52.030;4.586;2022-12-18T08:06:50;22.02;;;10.57;;
41683;SDS011;27369;52.030;4.586;2022-12-18T08:09:16;30.33;;;15.32;;
41683;SDS011;27369;52.030;4.586;2022-12-18T08:11:41;26.23;;;13.02;;
41683;SDS011;27369;52.030;4.586;2022-12-18T08:14:07;26.10;;;11.85;;
41683;SDS011;27369;52.030;4.586;2022-12-18T08:16:32;30.63;;;14.90;;
41683;SDS011;27369;52.030;4.586;2022-12-18T08:18:58;23.23;;;9.52;;
41683;SDS011;27369;52.030;4.586;2022-12-18T08:21:24;19.48;;;8.85;;
41683;SDS011;27369;52.030;4.586;2022-12-18T08:23:56;25.80;;;13.68;;
41683;SDS011;27369;52.030;4.586;2022-12-18T08:26:23;14.20;;;7.60;;
41683;SDS011;27369;52.030;4.586;2022-12-18T08:28:50;22.35;;;11.88;;
41683;SDS011;27369;52.030;4.586;2022-12-18T08:31:16;21.98;;;11.60;;
41683;SDS011;27369;52.030;4.586;2022-12-18T08:33:41;14.02;;;6.57;;
41683;SDS011;27369;52.030;4.586;2022-12-18T08:36:07;22.63;;;11.55;;
41683;SDS011;27369;52.030;4.586;2022-12-18T08:40:59;19.00;;;10.77;;
41683;SDS011;27369;52.030;4.586;2022-12-18T08:43:28;24.65;;;12.48;;
41683;SDS011;27369;52.030;4.586;2022-12-18T08:46:12;27.48;;;13.00;;
41683;SDS011;27369;52.030;4.586;2022-12-18T08:48:37;27.10;;;13.68;;
41683;SDS011;27369;52.030;4.586;2022-12-18T08:51:03;20.73;;;10.90;;
41683;SDS011;27369;52.030;4.586;2022-12-18T08:53:29;24.88;;;13.00;;
41683;SDS011;27369;52.030;4.586;2022-12-18T08:55:56;26.73;;;11.95;;
41683;SDS011;27369;52.030;4.586;2022-12-18T08:58:21;27.52;;;12.57;;
41683;SDS011;27369;52.030;4.586;2022-12-18T09:00:47;23.92;;;12.52;;
41683;SDS011;27369;52.030;4.586;2022-12-18T09:03:16;27.92;;;14.05;;
41683;SDS011;27369;52.030;4.586;2022-12-18T09:05:42;22.58;;;11.93;;
41683;SDS011;27369;52.030;4.586;2022-12-18T09:08:08;23.75;;;12.73;;
41683;SDS011;27369;52.030;4.586;2022-12-18T09:10:34;22.98;;;11.98;;
41683;SDS011;27369;52.030;4.586;2022-12-18T09:13:06;26.60;;;11.90;;
41683;SDS011;27369;52.030;4.586;2022-12-18T09:15:32;20.48;;;11.15;;
41683;SDS011;27369;52.030;4.586;2022-12-18T09:17:57;22.65;;;13.60;;
41683;SDS011;27369;52.030;4.586;2022-12-18T09:20:22;25.85;;;12.10;;
41683;SDS011;27369;52.030;4.586;2022-12-18T09:22:48;22.10;;;11.07;;
41683;SDS011;27369;52.030;4.586;2022-12-18T09:25:13;16.90;;;9.43;;
41683;SDS011;27369;52.030;4.586;2022-12-18T09:27:39;26.88;;;14.27;;
41683;SDS011;27369;52.030;4.586;2022-12-18T09:30:04;25.45;;;12.55;;
41683;SDS011;27369;52.030;4.586;2022-12-18T09:32:30;17.90;;;10.33;;
41683;SDS011;27369;52.030;4.586;2022-12-18T09:34:56;27.17;;;13.48;;
41683;SDS011;27369;52.030;4.586;2022-12-18T09:37:21;26.55;;;13.38;;
41683;SDS011;27369;52.030;4.586;2022-12-18T09:39:46;22.42;;;12.00;;
41683;SDS011;27369;52.030;4.586;2022-12-18T09:42:17;22.17;;;12.00;;
41683;SDS011;27369;52.030;4.586;2022-12-18T09:44:47;29.08;;;14.45;;
41683;SDS011;27369;52.030;4.586;2022-12-18T09:49:50;17.25;;;9.52;;
41683;SDS011;27369;52.030;4.586;2022-12-18T09:55:16;24.42;;;12.55;;
41683;SDS011;27369;52.030;4.586;2022-12-18T09:57:47;15.32;;;8.88;;
41683;SDS011;27369;52.030;4.586;2022-12-18T10:00:23;27.60;;;12.23;;
41683;SDS011;27369;52.030;4.586;2022-12-18T10:02:51;19.88;;;11.45;;
41683;SDS011;27369;52.030;4.586;2022-12-18T10:05:35;25.65;;;12.55;;
41683;SDS011;27369;52.030;4.586;2022-12-18T10:11:01;11.23;;;6.65;;
41683;SDS011;27369;52.030;4.586;2022-12-18T10:14:09;20.23;;;11.52;;
41683;SDS011;27369;52.030;4.586;2022-12-18T10:19:30;19.23;;;10.10;;
41683;SDS011;27369;52.030;4.586;2022-12-18T10:27:51;19.25;;;10.70;;
41683;SDS011;27369;52.030;4.586;2022-12-18T10:30:23;17.88;;;10.20;;
41683;SDS011;27369;52.030;4.586;2022-12-18T10:32:50;20.05;;;11.80;;
41683;SDS011;27369;52.030;4.586;2022-12-18T10:35:20;18.00;;;9.75;;
41683;SDS011;27369;52.030;4.586;2022-12-18T10:38:03;20.55;;;10.50;;
41683;SDS011;27369;52.030;4.586;2022-12-18T10:43:38;19.90;;;10.77;;
41683;SDS011;27369;52.030;4.586;2022-12-18T10:48:55;21.40;;;10.45;;
41683;SDS011;27369;52.030;4.586;2022-12-18T10:51:28;17.02;;;8.10;;
41683;SDS011;27369;52.030;4.586;2022-12-18T10:54:02;16.42;;;9.55;;
41683;SDS011;27369;52.030;4.586;2022-12-18T10:56:31;21.05;;;13.02;;
41683;SDS011;27369;52.030;4.586;2022-12-18T10:59:01;25.60;;;13.07;;
41683;SDS011;27369;52.030;4.586;2022-12-18T11:01:56;22.20;;;12.93;;
41683;SDS011;27369;52.030;4.586;2022-12-18T11:04:25;24.00;;;13.20;;
41683;SDS011;27369;52.030;4.586;2022-12-18T11:06:53;14.68;;;8.43;;
41683;SDS011;27369;52.030;4.586;2022-12-18T11:09:20;22.05;;;11.60;;
41683;SDS011;27369;52.030;4.586;2022-12-18T11:11:48;22.55;;;12.27;;
41683;SDS011;27369;52.030;4.586;2022-12-18T11:15:02;20.45;;;11.68;;
41683;SDS011;27369;52.030;4.586;2022-12-18T11:17:45;18.05;;;10.48;;
41683;SDS011;27369;52.030;4.586;2022-12-18T11:20:05;17.38;;;9.80;;
41683;SDS011;27369;52.030;4.586;2022-12-18T11:22:45;15.85;;;8.90;;
41683;SDS011;27369;52.030;4.586;2022-12-18T11:25:31;18.17;;;11.43;;
41683;SDS011;27369;52.030;4.586;2022-12-18T11:28:02;17.38;;;11.32;;
41683;SDS011;27369;52.030;4.586;2022-12-18T11:30:49;19.67;;;11.30;;
41683;SDS011;27369;52.030;4.586;2022-12-18T11:37:07;18.05;;;11.30;;
41683;SDS011;27369;52.030;4.586;2022-12-18T11:39:38;18.83;;;10.60;;
41683;SDS011;27369;52.030;4.586;2022-12-18T11:42:12;21.00;;;12.73;;
41683;SDS011;27369;52.030;4.586;2022-12-18T11:44:52;21.70;;;11.82;;
41683;SDS011;27369;52.030;4.586;2022-12-18T11:50:12;22.23;;;12.55;;
41683;SDS011;27369;52.030;4.586;2022-12-18T11:52:41;25.15;;;14.00;;
41683;SDS011;27369;52.030;4.586;2022-12-18T11:55:11;20.63;;;12.02;;
41683;SDS011;27369;52.030;4.586;2022-12-18T12:01:02;20.92;;;11.00;;
41683;SDS011;27369;52.030;4.586;2022-12-18T12:06:32;20.40;;;12.53;;
41683;SDS011;27369;52.030;4.586;2022-12-18T12:14:27;20.23;;;11.35;;
41683;SDS011;27369;52.030;4.586;2022-12-18T12:17:06;23.75;;;13.15;;
41683;SDS011;27369;52.030;4.586;2022-12-18T12:22:11;24.73;;;11.80;;
41683;SDS011;27369;52.030;4.586;2022-12-18T12:37:57;20.83;;;12.18;;
41683;SDS011;27369;52.030;4.586;2022-12-18T12:40:34;23.58;;;12.15;;
41683;SDS011;27369;52.030;4.586;2022-12-18T12:43:07;21.38;;;11.93;;
41683;SDS011;27369;52.030;4.586;2022-12-18T12:45:49;21.67;;;11.77;;
41683;SDS011;27369;52.030;4.586;2022-12-18T12:53:49;23.67;;;13.00;;
41683;SDS011;27369;52.030;4.586;2022-12-18T12:56:16;23.52;;;11.43;;
41683;SDS011;27369;52.030;4.586;2022-12-18T13:02:05;19.35;;;11.23;;
41683;SDS011;27369;52.030;4.586;2022-12-18T13:04:47;25.25;;;13.25;;
41683;SDS011;27369;52.030;4.586;2022-12-18T13:07:35;23.95;;;13.07;;
41683;SDS011;27369;52.030;4.586;2022-12-18T13:15:45;22.95;;;12.90;;
41683;SDS011;27369;52.030;4.586;2022-12-18T13:25:53;22.92;;;12.32;;
41683;SDS011;27369;52.030;4.586;2022-12-18T13:31:12;21.10;;;11.68;;
41683;SDS011;27369;52.030;4.586;2022-12-18T13:34:14;15.73;;;10.40;;
41683;SDS011;27369;52.030;4.586;2022-12-18T13:36:42;23.23;;;11.60;;
41683;SDS011;27369;52.030;4.586;2022-12-18T13:41:43;21.80;;;12.35;;
41683;SDS011;27369;52.030;4.586;2022-12-18T13:46:59;26.20;;;14.00;;
41683;SDS011;27369;52.030;4.586;2022-12-18T13:52:02;23.77;;;13.88;;
41683;SDS011;27369;52.030;4.586;2022-12-18T13:54:51;22.77;;;12.55;;
41683;SDS011;27369;52.030;4.586;2022-12-18T13:57:34;22.33;;;11.90;;
41683;SDS011;27369;52.030;4.586;2022-12-18T14:02:50;17.55;;;10.90;;
41683;SDS011;27369;52.030;4.586;2022-12-18T14:05:23;20.77;;;13.38;;
41683;SDS011;27369;52.030;4.586;2022-12-18T14:07:53;19.85;;;12.13;;
41683;SDS011;27369;52.030;4.586;2022-12-18T14:10:19;20.83;;;11.32;;
41683;SDS011;27369;52.030;4.586;2022-12-18T14:20:26;20.73;;;12.52;;
41683;SDS011;27369;52.030;4.586;2022-12-18T14:22:53;13.82;;;8.02;;
41683;SDS011;27369;52.030;4.586;2022-12-18T14:25:21;17.58;;;9.00;;
41683;SDS011;27369;52.030;4.586;2022-12-18T14:30:34;18.80;;;10.73;;
41683;SDS011;27369;52.030;4.586;2022-12-18T14:33:05;15.32;;;10.15;;
41683;SDS011;27369;52.030;4.586;2022-12-18T14:35:34;20.40;;;10.52;;
41683;SDS011;27369;52.030;4.586;2022-12-18T14:38:10;18.42;;;11.52;;
41683;SDS011;27369;52.030;4.586;2022-12-18T14:40:36;17.88;;;9.07;;
41683;SDS011;27369;52.030;4.586;2022-12-18T14:43:01;20.38;;;9.18;;
41683;SDS011;27369;52.030;4.586;2022-12-18T14:45:40;21.48;;;12.00;;
41683;SDS011;27369;52.030;4.586;2022-12-18T14:51:19;16.25;;;8.50;;
41683;SDS011;27369;52.030;4.586;2022-12-18T14:53:47;15.77;;;8.20;;
41683;SDS011;27369;52.030;4.586;2022-12-18T14:56:27;13.93;;;9.00;;
41683;SDS011;27369;52.030;4.586;2022-12-18T15:01:27;16.15;;;9.60;;
41683;SDS011;27369;52.030;4.586;2022-12-18T15:03:55;19.15;;;10.73;;
41683;SDS011;27369;52.030;4.586;2022-12-18T15:06:32;20.65;;;13.30;;
41683;SDS011;27369;52.030;4.586;2022-12-18T15:09:04;21.85;;;11.30;;
41683;SDS011;27369;52.030;4.586;2022-12-18T15:11:45;24.40;;;12.40;;
41683;SDS011;27369;52.030;4.586;2022-12-18T15:14:28;24.73;;;12.15;;
41683;SDS011;27369;52.030;4.586;2022-12-18T15:16:56;21.48;;;11.43;;
41683;SDS011;27369;52.030;4.586;2022-12-18T15:19:45;10.45;;;6.22;;
41683;SDS011;27369;52.030;4.586;2022-12-18T15:22:21;14.95;;;8.60;;
41683;SDS011;27369;52.030;4.586;2022-12-18T15:24:50;23.52;;;12.65;;
41683;SDS011;27369;52.030;4.586;2022-12-18T15:27:48;25.17;;;13.75;;
41683;SDS011;27369;52.030;4.586;2022-12-18T15:32:39;25.92;;;14.32;;
41683;SDS011;27369;52.030;4.586;2022-12-18T15:37:36;23.30;;;13.05;;
41683;SDS011;27369;52.030;4.586;2022-12-18T15:40:03;23.33;;;14.43;;
41683;SDS011;27369;52.030;4.586;2022-12-18T15:45:13;26.20;;;14.13;;
41683;SDS011;27369;52.030;4.586;2022-12-18T15:47:39;18.17;;;11.00;;
41683;SDS011;27369;52.030;4.586;2022-12-18T15:50:05;23.70;;;14.18;;
41683;SDS011;27369;52.030;4.586;2022-12-18T15:52:44;16.50;;;10.10;;
41683;SDS011;27369;52.030;4.586;2022-12-18T15:55:15;19.80;;;11.48;;
41683;SDS011;27369;52.030;4.586;2022-12-18T15:58:01;14.70;;;8.32;;
41683;SDS011;27369;52.030;4.586;2022-12-18T16:00:26;19.80;;;11.32;;
41683;SDS011;27369;52.030;4.586;2022-12-18T16:02:52;17.25;;;11.52;;
41683;SDS011;27369;52.030;4.586;2022-12-18T16:05:19;19.65;;;10.93;;
41683;SDS011;27369;52.030;4.586;2022-12-18T16:07:46;21.48;;;11.88;;
41683;SDS011;27369;52.030;4.586;2022-12-18T16:10:12;22.67;;;10.48;;
41683;SDS011;27369;52.030;4.586;2022-12-18T16:12:38;20.50;;;12.35;;
41683;SDS011;27369;52.030;4.586;2022-12-18T16:15:04;24.10;;;10.68;;
41683;SDS011;27369;52.030;4.586;2022-12-18T16:19:56;22.50;;;12.57;;
41683;SDS011;27369;52.030;4.586;2022-12-18T16:22:23;23.15;;;11.75;;
41683;SDS011;27369;52.030;4.586;2022-12-18T16:24:51;19.52;;;11.07;;
41683;SDS011;27369;52.030;4.586;2022-12-18T16:27:17;16.85;;;10.00;;
41683;SDS011;27369;52.030;4.586;2022-12-18T16:29:43;26.55;;;14.20;;
41683;SDS011;27369;52.030;4.586;2022-12-18T16:32:14;19.58;;;10.98;;
41683;SDS011;27369;52.030;4.586;2022-12-18T16:34:41;21.50;;;10.82;;
41683;SDS011;27369;52.030;4.586;2022-12-18T16:37:08;21.67;;;13.20;;
41683;SDS011;27369;52.030;4.586;2022-12-18T16:39:35;21.70;;;13.02;;
41683;SDS011;27369;52.030;4.586;2022-12-18T16:42:06;23.98;;;11.68;;
41683;SDS011;27369;52.030;4.586;2022-12-18T16:44:35;22.33;;;12.18;;
41683;SDS011;27369;52.030;4.586;2022-12-18T16:47:00;18.58;;;12.13;;
41683;SDS011;27369;52.030;4.586;2022-12-18T16:49:27;22.20;;;13.35;;
41683;SDS011;27369;52.030;4.586;2022-12-18T16:51:52;21.10;;;11.95;;
41683;SDS011;27369;52.030;4.586;2022-12-18T16:54:18;25.15;;;14.35;;
41683;SDS011;27369;52.030;4.586;2022-12-18T16:56:44;20.85;;;12.05;;
41683;SDS011;27369;52.030;4.586;2022-12-18T17:01:36;19.53;;;12.37;;
41683;SDS011;27369;52.030;4.586;2022-12-18T17:04:03;19.95;;;12.07;;
41683;SDS011;27369;52.030;4.586;2022-12-18T17:06:31;24.67;;;14.52;;
41683;SDS011;27369;52.030;4.586;2022-12-18T17:08:59;20.77;;;12.40;;
41683;SDS011;27369;52.030;4.586;2022-12-18T17:11:30;21.55;;;14.27;;
41683;SDS011;27369;52.030;4.586;2022-12-18T17:13:57;30.65;;;14.52;;
41683;SDS011;27369;52.030;4.586;2022-12-18T17:16:23;24.70;;;13.63;;
41683;SDS011;27369;52.030;4.586;2022-12-18T17:18:49;23.52;;;14.23;;
41683;SDS011;27369;52.030;4.586;2022-12-18T17:21:17;25.63;;;14.15;;